FW1369 Weather Reports


Display with metric or nautical units.
time (UTC)temp
F
wind
direction
speed
MPH
gust
MPH
rain 1hr
in
rain 24hr
in
rain mn
in
humidity
%
barometer
mb
20180124110841 24 312 2.0 5.0 0.00 0.02 0.00 77 1015.0
20180124105339 24 336 2.0 5.0 0.00 0.02 0.00 77 1014.7
20180124103840 25 291 1.0 7.0 0.00 0.02 0.00 77 1014.6
20180124102334 25 313 3.0 9.0 0.00 0.02 0.00 77 1014.3
20180124100831 25 312 3.0 7.0 0.00 0.02 0.00 77 1013.9
20180124095330 25 298 1.0 5.0 0.00 0.02 0.00 77 1013.7
20180124093826 25 309 3.0 9.0 0.00 0.02 0.00 77 1013.2
20180124092325 25 295 2.0 5.0 0.00 0.02 0.00 78 1013.1
20180124090822 26 285 3.0 13.0 0.00 0.02 0.00 78 1012.8
20180124085323 26 313 4.0 8.0 0.00 0.02 0.00 79 1012.3
20180124083819 27 312 2.0 8.0 0.00 0.02 0.00 79 1011.9
20180124082313 27 274 2.0 9.0 0.00 0.02 0.00 79 1011.7
20180124080812 27 314 3.0 7.0 0.00 0.02 0.00 79 1011.2
20180124075307 27 308 2.0 8.0 0.00 0.03 0.00 80 1011.0
20180124073804 27 305 3.0 10.0 0.00 0.03 0.00 79 1010.6
20180124072305 27 300 3.0 10.0 0.00 0.03 0.00 78 1010.3
20180124070804 28 309 3.0 13.0 0.00 0.03 0.00 77 1010.0
20180124065257 28 301 2.0 8.0 0.00 0.03 0.00 78 1009.7
20180124063756 28 244 1.0 19.0 0.00 0.03 0.00 79 1009.2
20180124062255 28 257 2.0 13.0 0.00 0.03 0.00 78 1008.7
20180124060747 28 279 4.0 10.0 0.00 0.03 0.00 78 1008.5
20180124055246 29 302 2.0 11.0 0.00 0.04 0.00 79 1008.1
20180124053744 29 266 3.0 8.0 0.00 0.04 0.00 80 1007.9
20180124052244 29 304 4.0 17.0 0.00 0.04 0.00 79 1007.6
20180124050739 30 339 2.0 9.0 0.00 0.04 0.00 82 1007.1
20180124045231 31 296 3.0 13.0 0.00 0.04 0.04 80 1006.6
20180124043732 31 306 4.0 8.0 0.00 0.04 0.04 80 1006.3
20180124042224 31 275 2.0 6.0 0.00 0.04 0.04 84 1005.8
20180124040721 32 295 3.0 12.0 0.00 0.04 0.04 87 1005.6
20180124035223 33 120 4.0 11.0 0.00 0.04 0.04 87 1005.4
20180124033716 34 304 3.0 15.0 0.00 0.04 0.04 84 1004.6
20180124032212 35 276 4.0 12.0 0.00 0.04 0.04 83 1004.2
20180124030709 35 321 3.0 14.0 0.00 0.04 0.04 82 1004.0
20180124025207 36 256 3.0 10.0 0.00 0.04 0.04 80 1003.9
20180124023705 36 288 3.0 15.0 0.00 0.04 0.04 79 1003.8
20180124022204 36 315 3.0 12.0 0.00 0.04 0.04 78 1003.5
20180124020703 37 248 4.0 14.0 0.00 0.04 0.04 77 1003.2
20180124015159 37 317 4.0 15.0 0.00 0.04 0.04 77 1003.2
20180124013659 37 277 4.0 12.0 0.00 0.04 0.04 77 1003.1
20180124012158 37 290 3.0 11.0 0.00 0.04 0.04 78 1002.8
20180124010658 37 11 3.0 13.0 0.01 0.04 0.04 80 1002.6
20180124005154 36 210 1.0 5.0 0.01 0.04 0.04 85 1002.5
20180124003653 36 306 2.0 5.0 0.01 0.04 0.04 86 1002.6
20180124002151 37 299 2.0 7.0 0.01 0.04 0.04 85 1002.5
20180124000650 37 310 3.0 9.0 0.00 0.03 0.03 83 1002.3
20180123235150 38 286 2.0 10.0 0.00 0.03 0.03 81 1002.1
20180123233646 38 309 1.0 6.0 0.00 0.03 0.03 80 1002.0
20180123232148 38 246 2.0 10.0 0.00 0.03 0.03 79 1001.8
20180123230644 38 305 3.0 8.0 0.00 0.03 0.03 78 1001.7
20180123225149 38 269 2.0 11.0 0.00 0.03 0.03 77 1001.6
20180123223644 39 298 3.0 10.0 0.00 0.03 0.03 76 1001.6
20180123222140 39 310 3.0 8.0 0.00 0.03 0.03 77 1001.5
20180123220640 38 284 2.0 10.0 0.00 0.03 0.03 78 1001.3
20180123215137 39 297 2.0 9.0 0.00 0.03 0.03 79 1001.4
20180123213636 39 314 2.0 10.0 0.00 0.03 0.03 79 1001.3
20180123212135 39 277 3.0 9.0 0.00 0.03 0.03 79 1001.0
20180123210632 39 313 3.0 7.0 0.00 0.03 0.03 79 1000.8
20180123205130 39 141 2.0 11.0 0.00 0.03 0.03 78 1000.7
20180123203631 40 281 2.0 7.0 0.00 0.03 0.03 78 1000.4
20180123202127 40 247 1.0 8.0 0.00 0.03 0.03 79 1000.5
20180123200629 40 275 2.0 8.0 0.00 0.03 0.03 80 1000.4
20180123195126 41 300 2.0 12.0 0.00 0.03 0.03 80 1000.3
20180123193626 40 294 1.0 9.0 0.00 0.03 0.03 81 1000.2
20180123192124 40 295 2.0 7.0 0.00 0.03 0.03 82 1000.4
20180123190624 39 320 3.0 12.0 0.00 0.03 0.03 83 1000.1
20180123185121 40 245 2.0 8.0 0.00 0.05 0.03 84 999.7
20180123183623 40 304 1.0 9.0 0.00 0.05 0.03 84 999.5
20180123182120 41 284 3.0 20.0 0.00 0.05 0.03 83 999.0
20180123180615 46 260 6.0 13.0 0.00 0.05 0.03 75 998.4
20180123175113 48 322 0.0 2.0 0.00 0.09 0.03 78 997.5
20180123173617 49 320 0.0 4.0 0.00 0.09 0.03 75 997.7
20180123172114 52 189 5.0 12.0 0.00 0.09 0.03 62 997.5
20180123170610 54 184 3.0 8.0 0.00 0.09 0.03 61 998.0
20180123165107 55 276 2.0 7.0 0.00 0.09 0.03 67 998.5
20180123163606 54 254 2.0 7.0 0.00 0.09 0.03 68 999.0
20180123162105 52 217 2.0 8.0 0.00 0.09 0.03 73 999.4
20180123160601 52 209 2.0 7.0 0.00 0.09 0.03 74 999.4
20180123155059 53 197 2.0 7.0 0.00 0.09 0.03 75 999.3
20180123153556 51 200 1.0 7.0 0.00 0.09 0.03 77 999.3
20180123152054 47 252 1.0 3.0 0.00 0.09 0.03 83 999.6
20180123150553 47 176 1.0 5.0 0.00 0.09 0.03 83 999.7
20180123145053 46 196 0.0 2.0 0.00 0.10 0.03 86 999.7
20180123143553 45 197 0.0 2.0 0.00 0.10 0.03 87 999.9
20180123142054 45 184 0.0 3.0 0.00 0.10 0.03 87 1000.1
20180123140552 45 215 0.0 3.0 0.00 0.10 0.03 88 1000.1
20180123135052 46 94 0.0 6.0 0.00 0.10 0.03 86 998.7
20180123133548 46 192 2.0 5.0 0.00 0.10 0.03 86 999.8
20180123132048 46 191 4.0 9.0 0.00 0.10 0.03 86 1000.0
20180123130546 45 188 3.0 9.0 0.00 0.10 0.03 87 1000.4
20180123125045 45 189 2.0 7.0 0.00 0.10 0.03 87 1000.2
20180123123546 45 176 2.0 7.0 0.00 0.10 0.03 88 1000.5
20180123122045 45 188 1.0 7.0 0.00 0.10 0.03 89 1001.3
20180123120541 44 185 2.0 6.0 0.00 0.10 0.03 88 1001.1
20180123115043 44 166 3.0 5.0 0.01 0.10 0.03 89 1001.7
20180123113542 44 157 1.0 5.0 0.01 0.10 0.03 89 1002.0